createdAt,value
2023-03-28T00:01:54.463Z,6.05
2023-03-28T00:04:30.034Z,5.13
2023-03-28T00:07:02.347Z,5.78
2023-03-28T00:09:34.812Z,5.55
2023-03-28T00:12:07.053Z,5.45
2023-03-28T00:14:39.657Z,6.03
2023-03-28T00:17:11.912Z,6.80
2023-03-28T00:19:47.134Z,5.90
2023-03-28T00:22:23.061Z,5.78
2023-03-28T00:24:57.317Z,5.80
2023-03-28T00:27:29.530Z,5.32
2023-03-28T00:30:03.054Z,5.93
2023-03-28T00:35:08.107Z,6.10
2023-03-28T00:37:42.245Z,6.40
2023-03-28T00:40:14.840Z,6.00
2023-03-28T00:42:46.943Z,6.20
2023-03-28T00:45:21.705Z,6.22
2023-03-28T00:48:02.246Z,6.20
2023-03-28T00:50:38.231Z,6.18
2023-03-28T00:53:15.262Z,6.47
2023-03-28T00:55:51.366Z,6.30
2023-03-28T00:58:29.451Z,6.38
2023-03-28T01:01:01.883Z,5.65
2023-03-28T01:03:35.868Z,6.32
2023-03-28T01:06:13.962Z,5.55
2023-03-28T01:08:47.467Z,6.22
2023-03-28T01:11:21.646Z,6.10
2023-03-28T01:13:55.537Z,6.20
2023-03-28T01:16:33.795Z,8.27
2023-03-28T01:19:27.061Z,6.53
2023-03-28T01:22:31.839Z,6.95
2023-03-28T01:25:39.827Z,7.10
2023-03-28T01:28:24.230Z,6.88
2023-03-28T01:31:21.542Z,6.05
2023-03-28T01:34:48.303Z,7.63
2023-03-28T01:37:26.252Z,7.72
2023-03-28T01:40:34.412Z,8.05
2023-03-28T01:43:14.938Z,7.32
2023-03-28T01:45:59.711Z,7.68
2023-03-28T01:48:54.468Z,7.97
2023-03-28T01:51:51.187Z,8.05
2023-03-28T01:54:39.486Z,8.55
2023-03-28T01:57:52.826Z,8.63
2023-03-28T02:00:31.142Z,9.45
2023-03-28T02:03:18.845Z,9.27
2023-03-28T02:05:59.099Z,9.32
2023-03-28T02:08:34.788Z,9.07
2023-03-28T02:11:20.536Z,8.98
2023-03-28T02:14:19.738Z,9.00
2023-03-28T02:17:09.515Z,9.38
2023-03-28T02:20:11.755Z,9.25
2023-03-28T02:26:12.608Z,9.80
2023-03-28T02:29:01.646Z,10.23
2023-03-28T02:31:54.703Z,9.27
2023-03-28T02:34:27.405Z,9.60
2023-03-28T02:37:02.186Z,9.23
2023-03-28T02:39:39.906Z,9.95
2023-03-28T02:42:45.942Z,9.63
2023-03-28T02:45:51.369Z,10.60
2023-03-28T02:48:45.537Z,10.02
2023-03-28T02:51:25.932Z,9.93
2023-03-28T02:54:17.578Z,10.65
2023-03-28T02:57:04.860Z,11.00
2023-03-28T02:59:57.724Z,9.77
2023-03-28T03:05:04.021Z,10.18
2023-03-28T03:07:39.474Z,10.20
2023-03-28T03:10:14.284Z,9.57
2023-03-28T03:12:50.732Z,11.25
2023-03-28T03:15:22.943Z,11.27
2023-03-28T03:18:01.874Z,9.70
2023-03-28T03:20:37.336Z,10.43
2023-03-28T03:23:09.484Z,9.82
2023-03-28T03:25:43.724Z,10.70
2023-03-28T03:28:21.699Z,10.30
2023-03-28T03:30:56.241Z,11.98
2023-03-28T03:33:43.718Z,10.50
2023-03-28T03:36:19.029Z,10.55
2023-03-28T03:38:52.711Z,9.93
2023-03-28T03:41:27.912Z,10.15
2023-03-28T03:44:00.109Z,11.55
2023-03-28T03:46:34.807Z,10.93
2023-03-28T03:49:09.879Z,10.98
2023-03-28T03:51:42.203Z,11.00
2023-03-28T03:54:14.344Z,11.38
2023-03-28T03:56:46.758Z,11.38
2023-03-28T03:59:19.748Z,10.82
2023-03-28T04:01:52.792Z,10.68
2023-03-28T04:04:25.058Z,10.65
2023-03-28T04:07:16.025Z,10.43
2023-03-28T04:09:50.063Z,11.00
2023-03-28T04:12:22.814Z,9.57
2023-03-28T04:14:57.404Z,10.88
2023-03-28T04:17:50.498Z,10.36
2023-03-28T04:20:30.130Z,9.98
2023-03-28T04:23:08.647Z,10.68
2023-03-28T04:25:43.005Z,10.57
2023-03-28T04:28:20.266Z,11.23
2023-03-28T04:31:01.281Z,10.70
2023-03-28T04:33:54.077Z,10.38
2023-03-28T04:36:27.349Z,10.88
2023-03-28T04:39:06.583Z,10.73
2023-03-28T04:41:56.345Z,11.05
2023-03-28T04:44:33.044Z,10.48
2023-03-28T04:47:11.870Z,12.32
2023-03-28T04:49:44.379Z,10.70
2023-03-28T04:52:17.066Z,11.97
2023-03-28T04:54:52.120Z,11.13
2023-03-28T04:57:27.389Z,10.23
2023-03-28T05:00:09.837Z,11.48
2023-03-28T05:03:01.051Z,12.48
2023-03-28T05:05:41.419Z,11.35
2023-03-28T05:08:19.025Z,11.35
2023-03-28T05:10:51.865Z,11.85
2023-03-28T05:13:24.101Z,12.27
2023-03-28T05:16:07.926Z,11.73
2023-03-28T05:19:06.778Z,11.43
2023-03-28T05:22:07.252Z,12.85
2023-03-28T05:24:41.373Z,11.13
2023-03-28T05:27:20.451Z,11.07
2023-03-28T05:29:53.548Z,11.63
2023-03-28T05:32:28.325Z,11.30
2023-03-28T05:35:00.934Z,10.98
2023-03-28T05:37:38.688Z,11.68
2023-03-28T05:40:14.543Z,11.55
2023-03-28T05:42:48.521Z,11.50
2023-03-28T05:45:23.642Z,10.32
2023-03-28T05:48:06.758Z,11.20
2023-03-28T05:50:41.526Z,12.80
2023-03-28T05:53:14.017Z,11.67
2023-03-28T05:55:46.325Z,11.13
2023-03-28T05:58:20.316Z,11.63
2023-03-28T06:00:52.646Z,12.60
2023-03-28T06:03:26.228Z,10.50
2023-03-28T06:05:58.788Z,9.55
2023-03-28T06:08:32.852Z,10.88
2023-03-28T06:11:05.462Z,10.20
2023-03-28T06:13:52.609Z,9.93
2023-03-28T06:16:30.632Z,10.90
2023-03-28T06:19:17.135Z,10.82
2023-03-28T06:21:54.685Z,10.10
2023-03-28T06:24:26.965Z,8.75
2023-03-28T06:27:00.159Z,10.43
2023-03-28T06:29:32.411Z,9.63
2023-03-28T06:32:08.049Z,8.82
2023-03-28T06:34:40.124Z,9.30
2023-03-28T06:37:12.249Z,9.38
2023-03-28T06:39:58.986Z,9.32
2023-03-28T06:42:40.158Z,7.65
2023-03-28T06:45:41.627Z,8.43
2023-03-28T06:48:19.590Z,8.68
2023-03-28T06:51:25.537Z,8.70
2023-03-28T06:53:57.786Z,9.00
2023-03-28T06:56:33.810Z,8.23
2023-03-28T06:59:06.106Z,8.32
2023-03-28T07:01:39.753Z,6.85
2023-03-28T07:04:15.565Z,7.30
2023-03-28T07:06:50.442Z,6.93
2023-03-28T07:09:22.652Z,7.40
2023-03-28T07:12:01.700Z,7.40
2023-03-28T07:14:34.352Z,6.47
2023-03-28T07:19:40.437Z,4.93
2023-03-28T07:22:12.791Z,5.38
2023-03-28T07:24:45.074Z,5.10
2023-03-28T07:27:18.912Z,6.13
2023-03-28T07:29:51.651Z,5.20
2023-03-28T07:32:23.875Z,5.68
2023-03-28T07:34:56.493Z,6.80
2023-03-28T07:37:31.681Z,5.40
2023-03-28T07:40:30.345Z,5.22
2023-03-28T07:43:02.975Z,4.03
2023-03-28T07:45:36.281Z,3.80
2023-03-28T07:48:09.530Z,4.07
2023-03-28T07:50:42.940Z,5.20
2023-03-28T07:53:18.310Z,4.70
2023-03-28T07:55:54.997Z,4.43
2023-03-28T07:58:33.056Z,3.70
2023-03-28T08:01:12.896Z,4.43
2023-03-28T08:03:52.117Z,3.70
2023-03-28T08:06:32.117Z,3.45
2023-03-28T08:09:08.533Z,4.45
2023-03-28T08:11:46.400Z,4.35
2023-03-28T08:14:18.982Z,4.03
2023-03-28T08:16:52.105Z,4.18
2023-03-28T08:19:24.346Z,4.00
2023-03-28T08:22:19.358Z,4.40
2023-03-28T08:25:02.249Z,4.63
2023-03-28T08:30:14.610Z,4.85
2023-03-28T08:32:57.606Z,4.57
2023-03-28T08:35:30.063Z,3.78
2023-03-28T08:38:05.122Z,4.07
2023-03-28T08:40:43.134Z,4.32
2023-03-28T08:43:26.736Z,4.88
2023-03-28T08:46:01.449Z,3.72
2023-03-28T08:48:46.122Z,3.17
2023-03-28T08:51:37.995Z,3.40
2023-03-28T08:54:16.735Z,3.70
2023-03-28T08:56:52.626Z,3.30
2023-03-28T08:59:53.882Z,2.95
2023-03-28T09:02:28.616Z,3.22
2023-03-28T09:05:21.537Z,2.97
2023-03-28T09:08:11.673Z,2.70
2023-03-28T09:10:50.950Z,3.03
2023-03-28T09:13:36.332Z,2.58
2023-03-28T09:16:33.527Z,3.08
2023-03-28T09:19:50.845Z,3.28
2023-03-28T09:22:59.478Z,3.40
2023-03-28T09:25:45.495Z,3.22
2023-03-28T09:28:41.842Z,3.42
2023-03-28T09:31:16.112Z,2.35
2023-03-28T09:33:50.478Z,3.28
2023-03-28T09:39:34.136Z,2.65
2023-03-28T09:42:45.981Z,4.03
2023-03-28T09:45:36.428Z,3.22
2023-03-28T09:48:37.326Z,3.47
2023-03-28T09:51:17.390Z,2.05
2023-03-28T09:53:50.825Z,3.35
2023-03-28T09:56:28.819Z,3.50
2023-03-28T09:59:28.167Z,3.65
2023-03-28T10:02:04.295Z,3.30
2023-03-28T10:04:41.465Z,3.28
2023-03-28T10:07:42.804Z,2.80
2023-03-28T10:10:34.547Z,3.50
2023-03-28T10:13:12.048Z,2.42
2023-03-28T10:15:47.638Z,3.22
2023-03-28T10:18:27.304Z,3.42
2023-03-28T10:21:37.962Z,3.00
2023-03-28T10:24:22.053Z,3.17
2023-03-28T10:27:07.879Z,3.55
2023-03-28T10:29:40.538Z,3.40
2023-03-28T10:32:23.265Z,3.10
2023-03-28T10:35:21.991Z,3.45
2023-03-28T10:38:05.821Z,3.42
2023-03-28T10:41:22.705Z,2.80
2023-03-28T10:44:36.628Z,3.58
2023-03-28T10:47:18.291Z,3.28
2023-03-28T10:50:04.815Z,3.05
2023-03-28T10:52:58.932Z,2.83
2023-03-28T10:55:41.774Z,2.95
2023-03-28T10:58:36.361Z,3.33
2023-03-28T11:01:31.334Z,3.80
2023-03-28T11:04:28.002Z,2.88
2023-03-28T11:07:08.065Z,3.05
2023-03-28T11:10:19.587Z,3.22
2023-03-28T11:13:22.482Z,3.40
2023-03-28T11:16:25.589Z,2.88
2023-03-28T11:19:37.210Z,3.70
2023-03-28T11:22:41.570Z,3.60
2023-03-28T11:25:46.105Z,3.30
2023-03-28T11:28:50.858Z,3.55
2023-03-28T11:31:51.711Z,3.38
2023-03-28T11:34:33.408Z,2.80
2023-03-28T11:37:27.927Z,3.72
2023-03-28T11:40:14.069Z,3.28
2023-03-28T11:43:01.017Z,3.05
2023-03-28T11:45:52.646Z,3.67
2023-03-28T11:48:47.234Z,3.22
2023-03-28T11:52:29.549Z,3.33
2023-03-28T11:55:28.721Z,3.03
2023-03-28T11:58:17.440Z,3.40
2023-03-28T12:01:00.412Z,2.88
2023-03-28T12:03:54.882Z,3.08
2023-03-28T12:07:03.166Z,3.08
2023-03-28T12:10:16.815Z,3.40
2023-03-28T12:13:27.570Z,2.95
2023-03-28T12:16:21.077Z,3.08
2023-03-28T12:19:02.093Z,3.90
2023-03-28T12:22:09.406Z,3.75
2023-03-28T12:24:52.770Z,2.88
2023-03-28T12:28:03.323Z,3.88
2023-03-28T12:31:07.152Z,3.20
2023-03-28T12:34:05.271Z,2.83
2023-03-28T12:37:04.268Z,3.17
2023-03-28T12:39:47.275Z,2.80
2023-03-28T12:42:28.636Z,3.45
2023-03-28T12:45:05.910Z,3.03
2023-03-28T12:47:50.242Z,3.47
2023-03-28T12:50:47.679Z,3.60
2023-03-28T12:53:22.158Z,3.08
2023-03-28T12:55:54.363Z,2.70
2023-03-28T12:58:33.983Z,3.20
2023-03-28T13:01:19.889Z,3.03
2023-03-28T13:04:28.469Z,2.70
2023-03-28T13:07:29.094Z,3.13
2023-03-28T13:10:07.572Z,2.72
2023-03-28T13:13:17.727Z,3.28
2023-03-28T13:16:22.336Z,2.67
2023-03-28T13:19:13.029Z,2.83
2023-03-28T13:21:55.436Z,3.03
2023-03-28T13:24:31.849Z,2.70
2023-03-28T13:27:12.196Z,2.83
2023-03-28T13:29:51.153Z,3.28
2023-03-28T13:32:24.844Z,3.10
2023-03-28T13:35:00.125Z,2.50
2023-03-28T13:37:47.173Z,3.10
2023-03-28T13:40:51.416Z,2.40
2023-03-28T13:43:42.804Z,3.10
2023-03-28T13:46:20.607Z,2.55
2023-03-28T13:49:06.317Z,2.22
2023-03-28T13:52:09.167Z,2.90
2023-03-28T13:54:41.490Z,3.10
2023-03-28T13:57:17.806Z,3.15
2023-03-28T14:00:00.000Z,3.58
2023-03-28T14:02:43.089Z,3.03
2023-03-28T14:05:27.719Z,3.17
2023-03-28T14:08:15.393Z,2.95
2023-03-28T14:10:48.743Z,2.50
2023-03-28T14:13:28.250Z,3.00
2023-03-28T14:16:00.694Z,3.28
2023-03-28T14:18:37.256Z,3.42
2023-03-28T14:21:10.337Z,2.90
2023-03-28T14:24:06.836Z,2.60
2023-03-28T14:26:39.504Z,2.95
2023-03-28T14:29:13.586Z,2.83
2023-03-28T14:31:48.481Z,3.00
2023-03-28T14:34:35.104Z,2.80
2023-03-28T14:37:18.689Z,2.97
2023-03-28T14:39:51.691Z,2.50
2023-03-28T14:42:24.521Z,2.80
2023-03-28T14:44:56.871Z,2.90
2023-03-28T14:47:35.670Z,2.60
2023-03-28T14:50:14.565Z,2.83
2023-03-28T14:52:48.118Z,2.67
2023-03-28T14:55:23.564Z,3.00
2023-03-28T14:57:56.613Z,3.20
2023-03-28T15:00:40.298Z,3.17
2023-03-28T15:03:22.529Z,3.20
2023-03-28T15:05:55.052Z,3.20
2023-03-28T15:08:28.850Z,3.00
2023-03-28T15:11:05.638Z,3.13
2023-03-28T15:13:39.509Z,3.30
2023-03-28T15:16:20.648Z,3.65
2023-03-28T15:19:07.273Z,3.53
2023-03-28T15:21:41.833Z,4.68
2023-03-28T15:24:18.156Z,2.90
2023-03-28T15:26:55.795Z,2.92
2023-03-28T15:29:31.741Z,3.80
2023-03-28T15:32:16.630Z,4.05
2023-03-28T15:35:04.773Z,3.28
2023-03-28T15:37:42.464Z,3.50
2023-03-28T15:40:27.961Z,4.05
2023-03-28T15:43:01.505Z,3.38
2023-03-28T15:45:40.969Z,3.63
2023-03-28T15:48:17.245Z,3.80
2023-03-28T15:50:52.746Z,3.53
2023-03-28T15:53:29.266Z,4.03
2023-03-28T15:56:34.119Z,3.55
2023-03-28T15:59:14.137Z,5.10
2023-03-28T16:01:46.376Z,5.03
2023-03-28T16:04:22.888Z,3.90
2023-03-28T16:07:04.738Z,4.40
2023-03-28T16:09:43.278Z,4.28
2023-03-28T16:12:15.838Z,4.07
2023-03-28T16:14:53.140Z,4.43
2023-03-28T16:17:49.397Z,3.58
2023-03-28T16:20:28.701Z,3.35
2023-03-28T16:23:07.214Z,4.95
2023-03-28T16:25:43.248Z,3.50
2023-03-28T16:28:21.336Z,3.15
2023-03-28T16:30:53.386Z,3.50
2023-03-28T16:33:25.643Z,3.00
2023-03-28T16:35:58.397Z,3.22
2023-03-28T16:38:30.759Z,3.65
2023-03-28T16:41:02.929Z,3.25
2023-03-28T16:43:37.167Z,3.40
2023-03-28T16:46:11.129Z,3.35
2023-03-28T16:48:48.154Z,3.10
2023-03-28T16:51:20.404Z,3.65
2023-03-28T16:53:52.854Z,3.45
2023-03-28T16:56:27.532Z,3.42
2023-03-28T17:01:32.264Z,3.33
2023-03-28T17:04:04.449Z,4.00
2023-03-28T17:06:36.762Z,3.50
2023-03-28T17:09:08.880Z,3.60
2023-03-28T17:11:42.996Z,3.50
2023-03-28T17:14:15.168Z,3.05
2023-03-28T17:16:47.339Z,3.20
2023-03-28T17:19:23.235Z,3.30
2023-03-28T17:21:57.976Z,3.05
2023-03-28T17:24:30.452Z,3.28
2023-03-28T17:27:03.639Z,3.50
2023-03-28T17:29:35.910Z,2.72
2023-03-28T17:32:08.355Z,3.10
2023-03-28T17:34:41.322Z,2.67
2023-03-28T17:37:13.810Z,2.90
2023-03-28T17:39:47.446Z,3.30
2023-03-28T17:42:20.101Z,2.47
2023-03-28T17:44:52.443Z,3.03
2023-03-28T17:47:24.754Z,2.60
2023-03-28T17:50:00.503Z,2.65
2023-03-28T17:52:32.810Z,3.20
2023-03-28T17:55:06.544Z,3.40
2023-03-28T17:57:39.118Z,3.35
2023-03-28T18:00:12.094Z,3.33
2023-03-28T18:02:47.382Z,2.80
2023-03-28T18:05:39.950Z,3.53
2023-03-28T18:08:12.124Z,3.55
2023-03-28T18:10:47.051Z,3.33
2023-03-28T18:13:21.792Z,3.28
2023-03-28T18:15:54.972Z,2.88
2023-03-28T18:18:27.125Z,2.67
2023-03-28T18:20:59.196Z,3.28
2023-03-28T18:23:32.023Z,2.63
2023-03-28T18:26:04.918Z,3.07
2023-03-28T18:28:37.444Z,3.38
2023-03-28T18:31:12.632Z,3.78
2023-03-28T18:33:45.549Z,3.53
2023-03-28T18:36:17.625Z,3.88
2023-03-28T18:38:50.126Z,5.03
2023-03-28T18:41:22.809Z,4.68
2023-03-28T18:43:54.884Z,4.18
2023-03-28T18:46:30.126Z,5.35
2023-03-28T18:49:02.436Z,5.30
2023-03-28T18:51:35.500Z,5.82
2023-03-28T18:54:07.718Z,5.93
2023-03-28T18:56:40.318Z,6.00
2023-03-28T18:59:12.646Z,6.82
2023-03-28T19:01:51.687Z,6.47
2023-03-28T19:04:25.868Z,6.45
2023-03-28T19:07:02.258Z,6.07
2023-03-28T19:09:34.336Z,6.60
2023-03-28T19:12:07.396Z,5.55
2023-03-28T19:14:39.877Z,5.53
2023-03-28T19:17:12.383Z,4.90
2023-03-28T19:19:44.415Z,4.70
2023-03-28T19:22:16.904Z,5.07
2023-03-28T19:24:48.929Z,5.95
2023-03-28T19:27:21.037Z,6.35
2023-03-28T19:29:53.097Z,6.38
2023-03-28T19:32:25.272Z,5.60
2023-03-28T19:34:58.013Z,5.70
2023-03-28T19:37:30.104Z,5.43
2023-03-28T19:40:08.642Z,6.05
2023-03-28T19:42:41.507Z,5.85
2023-03-28T19:45:13.685Z,4.68
2023-03-28T19:47:45.999Z,4.97
2023-03-28T19:50:18.909Z,4.90
2023-03-28T19:52:51.192Z,4.75
2023-03-28T19:55:24.067Z,5.00
2023-03-28T19:57:58.347Z,4.38
2023-03-28T20:00:31.432Z,4.68
2023-03-28T20:03:03.745Z,4.63
2023-03-28T20:05:41.764Z,4.50
2023-03-28T20:08:14.798Z,5.35
2023-03-28T20:10:49.240Z,5.22
2023-03-28T20:13:21.553Z,5.95
2023-03-28T20:15:54.099Z,5.95
2023-03-28T20:18:26.328Z,6.10
2023-03-28T20:21:04.015Z,6.28
2023-03-28T20:23:37.145Z,6.38
2023-03-28T20:26:16.062Z,7.35
2023-03-28T20:28:57.016Z,7.03
2023-03-28T20:31:29.397Z,6.80
2023-03-28T20:34:02.481Z,7.20
2023-03-28T20:36:35.070Z,6.90
2023-03-28T20:39:09.523Z,7.35
2023-03-28T20:41:41.868Z,6.20
2023-03-28T20:44:20.189Z,6.40
2023-03-28T20:46:52.841Z,6.25
2023-03-28T20:49:25.416Z,7.23
2023-03-28T20:51:59.076Z,6.15
2023-03-28T20:57:03.315Z,6.63
2023-03-28T20:59:35.402Z,6.25
2023-03-28T21:02:10.913Z,5.53
2023-03-28T21:04:43.213Z,5.75
2023-03-28T21:07:15.418Z,5.68
2023-03-28T21:09:47.645Z,5.63
2023-03-28T21:12:19.857Z,6.15
2023-03-28T21:14:52.226Z,6.10
2023-03-28T21:17:29.437Z,6.03
2023-03-28T21:20:03.492Z,5.93
2023-03-28T21:22:41.204Z,5.55
2023-03-28T21:25:14.401Z,5.22
2023-03-28T21:27:51.016Z,5.32
2023-03-28T21:30:23.099Z,5.78
2023-03-28T21:33:01.525Z,5.82
2023-03-28T21:35:38.709Z,5.07
2023-03-28T21:38:10.766Z,5.88
2023-03-28T21:40:42.902Z,5.55
2023-03-28T21:43:16.160Z,5.95
2023-03-28T21:45:48.678Z,6.25
2023-03-28T21:48:21.295Z,6.30
2023-03-28T21:50:59.790Z,6.07
2023-03-28T21:53:34.512Z,6.20
2023-03-28T21:56:07.137Z,6.28
2023-03-28T21:58:39.370Z,5.70
2023-03-28T22:01:14.283Z,5.25
2023-03-28T22:03:47.729Z,5.43
2023-03-28T22:08:53.046Z,3.58
2023-03-28T22:11:30.224Z,4.55
2023-03-28T22:14:03.091Z,4.47
2023-03-28T22:16:38.191Z,5.20
2023-03-28T22:19:11.223Z,4.68
2023-03-28T22:21:44.690Z,3.13
2023-03-28T22:24:17.455Z,3.22
2023-03-28T22:26:49.474Z,3.20
2023-03-28T22:29:21.578Z,3.83
2023-03-28T22:31:53.703Z,3.85
2023-03-28T22:34:26.526Z,3.67
2023-03-28T22:36:59.077Z,3.70
2023-03-28T22:39:31.588Z,4.22
2023-03-28T22:42:04.412Z,3.88
2023-03-28T22:44:36.700Z,3.97
2023-03-28T22:47:09.054Z,3.75
2023-03-28T22:49:41.226Z,3.58
2023-03-28T22:52:13.819Z,4.07
2023-03-28T22:54:46.371Z,3.42
2023-03-28T22:57:19.163Z,3.50
2023-03-28T22:59:52.828Z,2.97
2023-03-28T23:04:58.873Z,2.65
2023-03-28T23:10:05.734Z,2.50
2023-03-28T23:12:38.772Z,2.33
2023-03-28T23:15:12.034Z,2.40
2023-03-28T23:17:44.668Z,2.63
2023-03-28T23:20:17.377Z,2.60
2023-03-28T23:22:49.452Z,2.47
2023-03-28T23:25:22.477Z,1.77
2023-03-28T23:27:54.881Z,2.17
2023-03-28T23:30:27.308Z,3.17
2023-03-28T23:32:59.434Z,3.08
2023-03-28T23:35:32.062Z,2.58
2023-03-28T23:38:05.289Z,2.70
2023-03-28T23:40:37.629Z,3.75
2023-03-28T23:43:09.898Z,3.90
2023-03-28T23:45:43.240Z,4.00
2023-03-28T23:48:15.867Z,3.17
2023-03-28T23:50:47.976Z,2.78
2023-03-28T23:53:20.032Z,3.10
2023-03-28T23:55:52.057Z,2.88
2023-03-28T23:58:24.109Z,3.38
